Time;durP1;ratioP1;P1;durP2;ratioP2;P2;SDS_P1;SDS_P2;PMS_P1;PMS_P2;Temp;Humidity;BMP_temperature;BMP_pressure;BME280_temperature;BME280_humidity;BME280_pressure;Samples;Min_cycle;Max_cycle;Signal;HPM_P1;HPM_P2
2022/09/28 00:02:18;;;;;;;27.60;16.80;;;;;;;9.75;95.47;96808.33;104782;1287;138287;-73
2022/09/28 00:04:45;;;;;;;28.90;17.50;;;;;;;9.73;95.60;96807.42;104866;1287;22629;-73
2022/09/28 00:07:12;;;;;;;28.90;16.80;;;;;;;9.71;95.47;96799.93;104872;1287;23044;-73
2022/09/28 00:09:39;;;;;;;28.30;17.00;;;;;;;9.69;95.54;96798.96;104829;1286;139964;-73
2022/09/28 00:12:05;;;;;;;25.20;16.50;;;;;;;9.67;95.51;96795.98;104921;1287;25316;-73
2022/09/28 00:14:32;;;;;;;24.10;15.70;;;;;;;9.65;95.30;96794.90;104846;1287;138367;-72
2022/09/28 00:16:59;;;;;;;26.50;16.40;;;;;;;9.63;95.43;96799.38;104922;1287;25265;-73
2022/09/28 00:19:26;;;;;;;28.80;16.20;;;;;;;9.60;95.29;96800.20;104901;1287;25579;-73
2022/09/28 00:21:53;;;;;;;28.00;16.60;;;;;;;9.58;95.39;96800.48;104820;1287;138386;-73
2022/09/28 00:24:20;;;;;;;26.60;16.20;;;;;;;9.55;95.44;96796.09;105019;1287;25571;-72
2022/09/28 00:26:50;;;;;;;26.20;16.00;;;;;;;9.53;95.37;96790.28;104814;1287;138231;-73
2022/09/28 00:29:23;;;;;;;29.80;16.20;;;;;;;9.50;95.37;96789.16;105104;1288;24395;-73
2022/09/28 00:31:53;;;;;;;28.90;17.00;;;;;;;9.47;95.55;96788.58;104950;1288;22690;-73
2022/09/28 00:34:19;;;;;;;;;;;;;;;9.46;95.52;96793.25;104966;1287;138589;-73
2022/09/28 00:36:47;;;;;;;26.90;16.20;;;;;;;9.43;95.54;96796.59;105141;1287;24336;-73
2022/09/28 00:39:14;;;;;;;27.30;16.40;;;;;;;9.42;95.58;96798.65;104932;1287;139746;-72
2022/09/28 00:41:42;;;;;;;25.70;16.50;;;;;;;9.41;95.78;96800.89;104996;1287;24325;-73
2022/09/28 00:44:21;;;;;;;27.40;16.80;;;;;;;9.39;95.89;96805.84;104732;1290;137824;-72
2022/09/28 00:47:15;;;;;;;25.90;15.80;;;;;;;9.38;95.70;96808.88;104902;1287;22616;-73
2022/09/28 00:49:44;;;;;;;26.20;16.40;;;;;;;9.35;95.80;96804.66;104939;1287;23224;-72
2022/09/28 00:52:17;;;;;;;24.90;14.90;;;;;;;9.35;95.72;96802.54;104773;1290;139073;-73
2022/09/28 00:54:46;;;;;;;26.70;15.50;;;;;;;9.33;95.76;96802.88;105015;1287;25263;-72
2022/09/28 00:57:15;;;;;;;25.70;15.50;;;;;;;9.30;95.81;96798.59;104763;1290;137772;-72
2022/09/28 00:59:43;;;;;;;23.30;15.40;;;;;;;9.27;95.77;96797.23;105173;1287;22563;-72
2022/09/28 01:02:10;;;;;;;26.40;16.60;;;;;;;9.25;95.79;96793.50;104895;1287;138330;-72
2022/09/28 01:04:38;;;;;;;25.20;15.80;;;;;;;9.23;95.92;96791.34;104830;1287;23687;-72
2022/09/28 01:07:08;;;;;;;26.50;16.00;;;;;;;9.21;95.87;96792.06;105042;1287;22562;-72
2022/09/28 01:09:39;;;;;;;24.60;16.60;;;;;;;9.19;95.93;96788.75;104948;1287;137732;-72
2022/09/28 01:12:07;;;;;;;25.80;16.00;;;;;;;9.17;95.80;96785.71;105166;1286;23276;-72
2022/09/28 01:14:34;;;;;;;26.40;16.10;;;;;;;9.16;95.94;96786.69;104996;1287;138271;-72
2022/09/28 01:17:24;;;;;;;22.70;15.70;;;;;;;9.13;95.96;96791.80;105124;1287;25411;-73
2022/09/28 01:20:17;;;;;;;25.80;16.10;;;;;;;9.11;95.92;96790.02;105035;1287;24110;-72
2022/09/28 01:23:29;;;;;;;28.50;16.70;;;;;;;9.09;96.02;96793.61;104942;1287;24230;-72
2022/09/28 01:26:33;;;;;;;24.20;14.70;;;;;;;9.07;95.98;96792.91;104178;1293;22710;-72
2022/09/28 01:29:14;;;;;;;29.10;15.30;;;;;;;9.05;96.01;96792.77;104251;1293;22550;-72
2022/09/28 01:31:46;;;;;;;25.70;15.30;;;;;;;9.05;95.96;96794.50;103931;1293;25337;-72
2022/09/28 01:34:24;;;;;;;22.50;14.50;;;;;;;9.03;96.12;96791.35;104498;1292;137724;-72
2022/09/28 01:36:55;;;;;;;24.40;16.60;;;;;;;9.01;96.12;96793.97;104432;1293;24777;-73
2022/09/28 01:39:31;;;;;;;26.70;17.40;;;;;;;9.00;96.14;96792.98;104196;1293;139362;-72
2022/09/28 01:42:04;;;;;;;28.40;17.10;;;;;;;8.97;96.32;96791.59;103848;1295;22694;-73
2022/09/28 01:44:38;;;;;;;25.80;16.90;;;;;;;8.93;96.27;96794.59;103996;1293;138291;-72
2022/09/28 01:47:11;;;;;;;24.40;16.70;;;;;;;8.91;96.42;96794.74;103989;1295;22637;-73
2022/09/28 01:49:46;;;;;;;26.80;18.50;;;;;;;8.89;96.61;96799.98;104393;1293;30276;-73
2022/09/28 01:52:42;;;;;;;26.00;17.60;;;;;;;8.89;96.69;96799.98;104283;1293;138634;-72
2022/09/28 01:55:16;;;;;;;25.40;16.60;;;;;;;8.87;96.74;96808.55;104210;1293;22547;-73
2022/09/28 01:57:50;;;;;;;29.40;18.40;;;;;;;8.85;96.84;96812.36;104032;1293;137844;-72
2022/09/28 02:00:19;;;;;;;30.50;17.80;;;;;;;8.84;97.13;96811.70;104149;1293;25423;-73
2022/09/28 02:02:57;;;;;;;29.40;18.10;;;;;;;8.85;97.39;96816.48;103921;1287;138193;-72
2022/09/28 02:05:36;;;;;;;28.70;17.70;;;;;;;8.85;97.52;96819.85;104872;1287;22896;-73
2022/09/28 02:08:24;;;;;;;29.50;15.90;;;;;;;8.87;97.56;96817.78;104755;1287;140347;-72
2022/09/28 02:10:59;;;;;;;27.60;17.80;;;;;;;8.88;97.69;96819.02;104944;1287;23979;-72
2022/09/28 02:13:32;;;;;;;27.00;17.30;;;;;;;8.88;97.77;96818.16;104776;1290;24249;-72
2022/09/28 02:16:33;;;;;;;24.70;16.40;;;;;;;8.89;97.84;96820.27;104580;1287;137955;-72
2022/09/28 02:19:02;;;;;;;25.00;16.00;;;;;;;8.90;97.87;96824.29;105095;1287;22678;-73
2022/09/28 02:21:37;;;;;;;24.30;16.90;;;;;;;8.91;97.99;96825.31;104730;1287;137850;-72
2022/09/28 02:24:39;;;;;;;25.20;15.50;;;;;;;8.91;98.00;96822.88;104555;1290;22612;-72
2022/09/28 02:27:21;;;;;;;22.20;15.40;;;;;;;8.92;97.90;96823.85;104405;1295;138136;-73
2022/09/28 02:29:48;;;;;;;20.90;14.80;;;;;;;8.92;97.89;96821.63;103890;1293;25411;-73
2022/09/28 02:32:18;;;;;;;22.30;14.70;;;;;;;8.93;97.72;96826.57;104155;1293;138610;-73
2022/09/28 02:34:48;;;;;;;20.00;13.90;;;;;;;8.93;97.79;96829.45;104251;1293;22563;-73
2022/09/28 02:37:15;;;;;;;20.20;13.10;;;;;;;8.94;97.63;96835.95;103731;1294;24265;-73
2022/09/28 02:39:42;;;;;;;22.70;12.90;;;;;;;8.95;97.71;96834.00;103625;1294;137943;-73
2022/09/28 02:42:17;;;;;;;14.80;10.60;;;;;;;8.96;97.59;96835.95;103892;1294;24256;-73
2022/09/28 02:45:23;;;;;;;18.50;11.40;;;;;;;8.95;97.46;96843.82;103582;1294;138099;-73
2022/09/28 02:48:07;;;;;;;16.80;10.40;;;;;;;8.93;97.31;96845.40;103931;1293;25499;-73
2022/09/28 02:51:11;;;;;;;16.90;11.20;;;;;;;8.94;97.33;96842.80;104138;1294;139247;-73
2022/09/28 02:54:05;;;;;;;20.40;11.30;;;;;;;8.92;97.18;96838.35;103606;1299;22746;-73
2022/09/28 02:56:58;;;;;;;16.70;10.50;;;;;;;8.89;96.94;96838.79;103524;1298;138657;-73
2022/09/28 02:59:30;;;;;;;17.80;12.00;;;;;;;8.88;96.87;96836.89;103549;1299;22708;-73
2022/09/28 03:02:07;;;;;;;14.90;10.00;;;;;;;8.88;96.92;96839.88;103645;1299;22585;-73
2022/09/28 03:04:55;;;;;;;15.90;10.50;;;;;;;8.85;96.69;96837.18;104351;1293;24275;-72
2022/09/28 03:07:35;;;;;;;13.80;9.20;;;;;;;8.84;96.60;96840.48;104433;1293;22551;-72
2022/09/28 03:10:13;;;;;;;14.10;8.70;;;;;;;8.83;96.68;96834.99;103957;1293;140850;-73
2022/09/28 03:12:42;;;;;;;11.90;6.90;;;;;;;8.80;96.32;96830.98;103942;1294;25394;-73
2022/09/28 03:15:18;;;;;;;11.30;7.40;;;;;;;8.77;96.16;96828.98;103596;1295;138360;-73
2022/09/28 03:17:47;;;;;;;11.20;7.00;;;;;;;8.73;95.71;96830.02;104177;1293;25248;-72
2022/09/28 03:20:15;;;;;;;9.70;7.40;;;;;;;8.69;95.39;96833.33;103805;1293;138401;-73
2022/09/28 03:22:42;;;;;;;10.90;6.60;;;;;;;8.64;95.21;96828.61;104412;1292;22573;-72
2022/09/28 03:25:10;;;;;;;14.40;8.50;;;;;;;8.58;95.02;96831.60;104441;1293;22544;-72
2022/09/28 03:27:38;;;;;;;10.20;7.30;;;;;;;8.51;94.65;96829.16;104296;1293;138172;-72
2022/09/28 03:30:07;;;;;;;13.60;7.80;;;;;;;8.44;94.51;96827.36;104554;1290;22593;-73
2022/09/28 03:32:34;;;;;;;13.10;7.90;;;;;;;8.34;94.50;96824.90;104663;1290;138252;-73
2022/09/28 03:35:01;;;;;;;11.20;8.00;;;;;;;8.25;94.20;96827.13;105000;1286;24252;-72
2022/09/28 03:37:28;;;;;;;11.40;7.20;;;;;;;8.16;94.33;96819.80;105080;1286;25264;-72
2022/09/28 03:39:55;;;;;;;10.80;7.40;;;;;;;8.09;94.16;96820.70;104717;1287;137828;-72
2022/09/28 03:42:22;;;;;;;10.50;7.20;;;;;;;8.03;94.50;96822.97;104996;1287;24112;-73
2022/09/28 03:44:50;;;;;;;11.90;7.30;;;;;;;7.94;94.54;96824.53;104872;1287;137966;-73
2022/09/28 03:47:18;;;;;;;14.10;8.70;;;;;;;7.90;94.57;96823.98;104967;1287;25331;-73
2022/09/28 03:49:45;;;;;;;10.30;7.40;;;;;;;7.85;94.63;96823.43;104890;1287;25423;-73
2022/09/28 03:52:13;;;;;;;7.90;6.10;;;;;;;7.80;94.70;96826.67;104802;1287;137916;-73
2022/09/28 03:54:40;;;;;;;8.90;6.40;;;;;;;7.77;94.57;96828.40;105084;1287;25328;-73
2022/09/28 03:57:07;;;;;;;9.80;6.00;;;;;;;7.73;94.62;96827.46;104702;1287;138127;-73
2022/09/28 03:59:36;;;;;;;6.60;4.90;;;;;;;7.69;94.54;96828.96;104925;1286;22713;-73
2022/09/28 04:02:04;;;;;;;9.60;6.00;;;;;;;7.65;94.25;96828.04;104688;1287;22644;-73
2022/09/28 04:04:32;;;;;;;9.10;6.30;;;;;;;7.62;94.33;96829.86;104989;1287;25329;-73
2022/09/28 04:06:59;;;;;;;7.40;5.30;;;;;;;7.59;94.26;96827.80;104639;1288;25410;-73
2022/09/28 04:09:26;;;;;;;7.70;4.90;;;;;;;7.55;94.30;96829.31;104834;1287;137841;-73
2022/09/28 04:11:54;;;;;;;8.40;4.70;;;;;;;7.53;94.45;96829.13;104894;1287;25423;-73
2022/09/28 04:14:21;;;;;;;5.70;4.70;;;;;;;7.48;94.29;96829.88;104892;1287;137934;-73
2022/09/28 04:16:50;;;;;;;5.50;4.60;;;;;;;7.46;94.41;96832.85;104938;1287;25261;-73
2022/09/28 04:19:17;;;;;;;;;;;;;;;7.42;94.36;96837.66;105019;1287;25254;-73
2022/09/28 04:22:10;;;;;;;5.50;4.40;;;;;;;7.36;94.62;96837.69;104978;1287;124193;-73
2022/09/28 04:24:38;;;;;;;8.90;4.80;;;;;;;7.32;94.61;96835.12;104853;1287;23958;-73
2022/09/28 04:30:04;;;;;;;7.30;4.90;;;;;;;7.23;94.75;96837.79;104910;1287;22555;-73
2022/09/28 04:32:33;;;;;;;7.40;4.50;;;;;;;7.20;95.21;96837.06;104669;1287;138152;-73
2022/09/28 04:35:00;;;;;;;7.40;5.00;;;;;;;7.17;95.40;96835.10;104898;1286;25373;-73
2022/09/28 04:37:30;;;;;;;6.80;4.40;;;;;;;7.14;95.39;96836.98;104907;1287;25392;-73
2022/09/28 04:39:56;;;;;;;7.20;5.30;;;;;;;7.11;95.39;96839.35;104900;1287;137521;-74
2022/09/28 04:42:23;;;;;;;8.10;5.80;;;;;;;7.08;95.75;96840.70;104783;1287;22570;-73
2022/09/28 04:44:52;;;;;;;8.10;5.60;;;;;;;7.07;95.72;96840.90;104830;1287;137522;-73
2022/09/28 04:47:18;;;;;;;10.40;6.00;;;;;;;7.05;95.80;96844.83;104897;1287;22737;-74
2022/09/28 04:49:48;;;;;;;11.90;7.10;;;;;;;7.04;95.66;96845.82;104971;1287;24309;-73
2022/09/28 04:52:21;;;;;;;8.20;6.00;;;;;;;7.04;95.57;96843.11;105004;1287;137927;-73
2022/09/28 04:54:49;;;;;;;7.30;5.00;;;;;;;7.04;95.56;96848.89;104952;1287;24391;-73
2022/09/28 04:57:16;;;;;;;8.10;5.80;;;;;;;7.04;95.33;96850.08;104775;1287;137594;-74
2022/09/28 04:59:43;;;;;;;7.40;5.60;;;;;;;7.03;95.33;96853.48;104797;1287;22554;-73
2022/09/28 05:02:13;;;;;;;7.40;4.90;;;;;;;7.01;95.28;96856.30;104985;1287;137834;-73
2022/09/28 05:05:03;;;;;;;8.10;5.70;;;;;;;6.98;95.36;96859.41;104508;1287;23240;-74
2022/09/28 05:07:52;;;;;;;10.10;5.30;;;;;;;6.96;95.60;96862.16;105501;1278;22544;-74
2022/09/28 05:10:18;;;;;;;9.80;6.50;;;;;;;6.94;95.73;96861.50;105402;1280;137778;-73
2022/09/28 05:12:45;;;;;;;12.20;6.40;;;;;;;6.94;95.62;96864.42;105628;1278;25435;-74
2022/09/28 05:15:12;;;;;;;9.90;7.50;;;;;;;6.95;95.79;96862.11;105421;1280;137763;-74
2022/09/28 05:17:39;;;;;;;9.30;6.70;;;;;;;6.97;95.77;96860.38;105573;1281;22557;-74
2022/09/28 05:20:29;;;;;;;9.20;5.90;;;;;;;7.00;95.72;96862.30;105280;1279;137677;-74
2022/09/28 05:22:56;;;;;;;8.50;5.60;;;;;;;7.02;95.76;96865.45;105305;1280;22626;-74
2022/09/28 05:25:24;;;;;;;10.40;6.30;;;;;;;7.04;95.57;96863.52;105466;1280;25260;-75
2022/09/28 05:28:22;;;;;;;9.40;6.10;;;;;;;7.06;95.63;96863.58;105353;1280;137683;-74
2022/09/28 05:31:09;;;;;;;10.10;7.10;;;;;;;7.09;95.78;96866.58;105493;1279;22541;-75
2022/09/28 05:33:53;;;;;;;8.30;6.60;;;;;;;7.10;95.45;96862.52;105368;1278;138257;-75
2022/09/28 05:36:20;;;;;;;11.20;6.70;;;;;;;7.12;95.44;96860.75;105430;1280;22805;-74
2022/09/28 05:38:47;;;;;;;10.50;6.80;;;;;;;7.15;95.55;96859.90;105403;1280;138148;-75
2022/09/28 05:41:14;;;;;;;11.30;7.30;;;;;;;7.17;95.65;96858.13;105572;1280;24362;-75
2022/09/28 05:43:42;;;;;;;9.60;6.70;;;;;;;7.20;95.65;96859.10;105350;1280;25382;-74
2022/09/28 05:46:10;;;;;;;9.60;6.50;;;;;;;7.23;95.72;96858.64;105450;1280;137474;-74
2022/09/28 05:48:39;;;;;;;10.80;7.20;;;;;;;7.26;95.60;96861.79;105562;1280;22557;-75
2022/09/28 05:51:08;;;;;;;10.80;7.10;;;;;;;7.32;95.29;96863.17;105420;1279;137946;-74
2022/09/28 05:53:35;;;;;;;13.70;7.10;;;;;;;7.38;95.76;96867.32;105656;1280;22844;-75
2022/09/28 05:56:04;;;;;;;11.90;7.40;;;;;;;7.46;95.82;96866.91;105656;1280;23203;-75
2022/09/28 05:58:33;;;;;;;13.00;7.90;;;;;;;7.53;95.90;96868.95;105675;1280;24490;-75
2022/09/28 06:01:00;;;;;;;10.20;7.60;;;;;;;7.61;95.78;96870.08;105725;1279;25425;-75
2022/09/28 06:03:27;;;;;;;10.40;7.20;;;;;;;7.69;96.12;96873.89;105414;1280;137765;-74
2022/09/28 06:05:54;;;;;;;10.90;6.70;;;;;;;7.77;96.51;96879.77;105635;1278;23330;-74
2022/09/28 06:08:21;;;;;;;11.30;7.40;;;;;;;7.87;96.74;96878.18;105568;1280;138019;-74
2022/09/28 06:11:01;;;;;;;10.30;6.60;;;;;;;7.93;96.45;96876.23;105507;1279;22576;-74
2022/09/28 06:13:28;;;;;;;8.30;5.80;;;;;;;8.00;96.18;96879.36;105675;1279;25282;-74
2022/09/28 06:15:55;;;;;;;11.20;6.10;;;;;;;8.07;95.96;96881.88;105477;1281;137682;-76
2022/09/28 06:18:23;;;;;;;6.70;5.10;;;;;;;8.18;96.67;96878.57;105557;1281;22710;-74
2022/09/28 06:21:16;;;;;;;5.60;4.00;;;;;;;8.29;95.41;96876.64;105159;1280;137821;-74
2022/09/28 06:23:45;;;;;;;6.60;4.20;;;;;;;8.37;94.98;96873.14;105626;1281;23931;-74
2022/09/28 06:26:12;;;;;;;7.70;4.10;;;;;;;8.44;94.57;96874.63;105493;1280;138116;-74
2022/09/28 06:28:39;;;;;;;7.00;4.70;;;;;;;8.52;94.40;96874.54;105668;1280;25315;-74
2022/09/28 06:31:06;;;;;;;6.00;4.40;;;;;;;8.59;94.20;96874.64;105644;1280;22646;-75
2022/09/28 06:33:41;;;;;;;5.50;4.60;;;;;;;8.64;93.66;96876.59;105560;1279;138406;-74
2022/09/28 06:36:09;;;;;;;6.10;4.90;;;;;;;8.70;93.63;96877.55;105644;1280;23959;-74
2022/09/28 06:38:36;;;;;;;6.20;4.40;;;;;;;8.75;93.44;96878.44;105829;1279;138332;-74
2022/09/28 06:41:04;;;;;;;6.30;5.00;;;;;;;8.83;93.44;96880.11;105855;1280;23356;-74
2022/09/28 06:43:35;;;;;;;6.70;4.00;;;;;;;8.88;93.10;96877.60;106180;1280;27799;-75
2022/09/28 06:46:23;;;;;;;9.30;4.30;;;;;;;8.94;92.51;96878.31;105565;1278;138343;-74
2022/09/28 06:48:50;;;;;;;7.20;4.00;;;;;;;8.98;92.35;96873.41;105699;1280;24320;-74
2022/09/28 06:51:35;;;;;;;6.70;3.60;;;;;;;9.03;91.89;96870.80;105637;1280;137691;-74
2022/09/28 06:54:12;;;;;;;6.00;3.30;;;;;;;9.06;91.31;96867.20;106106;1278;22603;-74
2022/09/28 06:56:53;;;;;;;9.90;3.60;;;;;;;9.09;90.98;96866.83;105934;1280;137751;-74
2022/09/28 06:59:20;;;;;;;9.50;3.90;;;;;;;9.13;90.80;96866.77;105870;1280;24111;-73
2022/09/28 07:01:47;;;;;;;10.00;3.80;;;;;;;9.18;90.98;96858.11;106935;1280;24228;-74
2022/09/28 07:04:40;;;;;;;7.40;4.30;;;;;;;9.26;90.85;96845.21;105667;1277;25387;-73
2022/09/28 07:07:33;;;;;;;12.50;4.70;;;;;;;9.37;89.87;96853.34;106046;1276;22561;-74
2022/09/28 07:10:11;;;;;;;9.70;5.50;;;;;;;9.43;90.32;96862.23;106111;1274;138544;-74
2022/09/28 07:13:01;;;;;;;11.80;6.40;;;;;;;9.51;89.99;96867.36;106502;1274;25366;-74
2022/09/28 07:15:53;;;;;;;8.30;5.10;;;;;;;9.59;89.50;96869.35;105963;1274;138521;-74
2022/09/28 07:18:22;;;;;;;8.80;5.20;;;;;;;9.65;89.00;96875.51;106176;1274;22627;-74
2022/09/28 07:20:49;;;;;;;5.60;4.40;;;;;;;9.73;89.32;96875.05;106136;1274;138099;-74
2022/09/28 07:23:17;;;;;;;6.10;3.10;;;;;;;9.79;89.06;96869.90;106055;1274;25462;-74
2022/09/28 07:26:11;;;;;;;6.00;3.60;;;;;;;9.89;88.40;96872.30;105911;1274;138587;-74
2022/09/28 07:28:54;;;;;;;6.00;3.50;;;;;;;9.99;88.70;96873.72;106318;1274;25252;-74
2022/09/28 07:31:37;;;;;;;2.70;2.20;;;;;;;10.10;88.79;96864.27;106157;1274;25092;-74
2022/09/28 07:34:34;;;;;;;2.40;1.50;;;;;;;10.20;87.74;96862.55;106073;1274;24254;-74
2022/09/28 07:37:12;;;;;;;3.30;2.10;;;;;;;10.26;86.06;96866.48;106480;1274;22708;-74
2022/09/28 07:42:28;;;;;;;5.10;1.90;;;;;;;10.37;86.02;96864.77;106964;1274;24352;-75
2022/09/28 07:44:57;;;;;;;1.70;1.50;;;;;;;10.42;85.94;96867.01;105982;1274;138882;-73
2022/09/28 07:47:25;;;;;;;4.40;1.90;;;;;;;10.47;84.61;96868.49;106413;1276;22562;-74
2022/09/28 07:50:12;;;;;;;4.40;1.70;;;;;;;10.52;83.40;96872.50;106198;1274;139575;-74
2022/09/28 07:52:57;;;;;;;2.80;1.50;;;;;;;10.58;82.83;96875.39;106123;1275;22705;-74
2022/09/28 07:55:31;;;;;;;2.80;1.60;;;;;;;10.58;81.85;96870.05;105669;1274;22542;-74
2022/09/28 07:58:10;;;;;;;4.70;1.70;;;;;;;10.68;82.22;96868.83;106035;1274;137997;-73
2022/09/28 08:00:47;;;;;;;2.20;1.50;;;;;;;10.78;80.91;96868.64;106341;1274;25241;-74
2022/09/28 08:03:21;;;;;;;5.00;1.60;;;;;;;10.90;80.31;96862.59;106053;1277;137917;-75
2022/09/28 08:05:48;;;;;;;2.00;1.60;;;;;;;11.00;80.27;96867.24;106301;1274;25429;-75
2022/09/28 08:08:15;;;;;;;4.90;1.50;;;;;;;11.07;79.86;96870.98;105957;1274;138000;-74
2022/09/28 08:10:44;;;;;;;2.80;1.30;;;;;;;11.16;78.84;96873.61;105998;1274;24237;-74
2022/09/28 08:13:37;;;;;;;2.00;1.30;;;;;;;11.19;78.94;96868.90;105724;1277;24317;-74
2022/09/28 08:16:36;;;;;;;1.90;1.50;;;;;;;11.34;78.83;96867.39;105713;1277;22636;-74
2022/09/28 08:19:13;;;;;;;1.20;0.80;;;;;;;11.45;77.71;96864.64;106700;1274;22686;-75
2022/09/28 08:21:44;;;;;;;1.40;1.00;;;;;;;11.56;76.38;96859.40;106166;1277;138216;-75
2022/09/28 08:24:18;;;;;;;1.30;1.00;;;;;;;11.69;76.36;96856.68;106289;1274;22536;-75
2022/09/28 08:26:47;;;;;;;2.60;1.20;;;;;;;11.83;75.65;96857.00;105881;1274;138625;-74
2022/09/28 08:29:22;;;;;;;1.60;0.80;;;;;;;11.94;75.91;96854.64;106431;1277;25401;-74
2022/09/28 08:32:07;;;;;;;1.50;0.80;;;;;;;12.01;74.51;96857.07;106055;1277;25429;-74
2022/09/28 08:34:39;;;;;;;4.80;1.30;;;;;;;12.04;73.33;96851.73;105977;1277;24379;-74
2022/09/28 08:37:24;;;;;;;2.10;0.60;;;;;;;12.16;73.23;96855.94;106001;1277;22602;-74
2022/09/28 08:40:23;;;;;;;1.00;0.60;;;;;;;12.29;72.23;96853.78;106009;1277;137880;-74
2022/09/28 08:43:30;;;;;;;2.40;0.60;;;;;;;12.34;70.03;96851.19;106252;1277;25416;-74
2022/09/28 08:46:13;;;;;;;2.90;0.80;;;;;;;12.44;70.05;96846.95;105926;1277;139057;-74
2022/09/28 08:49:38;;;;;;;0.50;0.40;;;;;;;12.50;69.47;96846.52;106970;1273;23050;-74
2022/09/28 08:52:27;;;;;;;3.60;1.00;;;;;;;12.61;68.76;96841.43;106140;1274;138139;-74
2022/09/28 08:55:07;;;;;;;1.40;0.50;;;;;;;12.77;68.79;96841.34;106469;1277;23506;-74
2022/09/28 08:57:54;;;;;;;0.70;0.60;;;;;;;12.89;68.14;96844.02;105843;1276;139870;-73
2022/09/28 09:00:32;;;;;;;0.60;0.60;;;;;;;13.01;67.38;96847.53;106204;1277;24246;-73
2022/09/28 09:03:05;;;;;;;2.00;0.70;;;;;;;13.14;66.57;96846.53;105885;1277;139345;-74
2022/09/28 09:05:51;;;;;;;0.70;0.60;;;;;;;13.30;66.55;96845.98;105944;1277;25254;-74
2022/09/28 09:09:02;;;;;;;0.70;0.60;;;;;;;13.57;66.77;96845.37;105815;1277;138194;-73
2022/09/28 09:11:33;;;;;;;0.70;0.40;;;;;;;13.79;65.59;96839.50;105866;1277;22543;-72
2022/09/28 09:14:13;;;;;;;1.70;0.40;;;;;;;13.85;64.02;96844.59;106265;1277;24255;-73
2022/09/28 09:17:06;;;;;;;2.00;0.50;;;;;;;13.88;61.70;96845.44;106090;1277;24460;-73
2022/09/28 09:20:14;;;;;;;2.30;0.70;;;;;;;13.88;62.69;96848.40;105953;1274;24244;-73
2022/09/28 09:22:57;;;;;;;1.60;0.60;;;;;;;13.89;62.08;96849.48;106106;1274;22528;-73
2022/09/28 09:25:41;;;;;;;4.40;1.50;;;;;;;13.82;61.96;96848.69;106007;1274;22533;-72
2022/09/28 09:28:27;;;;;;;2.40;1.30;;;;;;;13.66;60.47;96856.67;105942;1274;137573;-72
2022/09/28 09:31:19;;;;;;;4.50;1.20;;;;;;;13.44;59.56;96853.77;106161;1275;24295;-72
2022/09/28 09:34:10;;;;;;;1.30;0.60;;;;;;;13.28;60.56;96853.50;105665;1274;137213;-73
2022/09/28 09:37:06;;;;;;;4.20;1.40;;;;;;;13.20;60.45;96847.63;105621;1274;22543;-73
2022/09/28 09:39:52;;;;;;;11.50;2.40;;;;;;;13.18;61.03;96848.21;105735;1275;139014;-73
2022/09/28 09:43:09;;;;;;;3.80;0.80;;;;;;;13.28;62.11;96846.36;105550;1280;23934;-73
2022/09/28 09:46:02;;;;;;;;;;;;;;;13.47;62.12;96847.65;105835;1276;137301;-74
2022/09/28 09:48:48;;;;;;;1.40;0.60;;;;;;;13.57;61.68;96851.59;105593;1278;22712;-74
2022/09/28 09:51:35;;;;;;;0.80;0.80;;;;;;;13.59;60.45;96863.55;105996;1274;137699;-73
2022/09/28 09:54:10;;;;;;;1.20;0.40;;;;;;;13.59;59.56;96859.50;105914;1274;22563;-73
2022/09/28 09:56:53;;;;;;;0.50;0.50;;;;;;;13.57;58.55;96861.78;105692;1277;137635;-74
2022/09/28 09:59:41;;;;;;;3.30;0.50;;;;;;;13.56;57.78;96859.73;106060;1276;25255;-73
2022/09/28 10:02:38;;;;;;;0.70;0.60;;;;;;;13.66;58.26;96848.38;105733;1276;137611;-73
2022/09/28 10:05:20;;;;;;;5.70;0.70;;;;;;;13.81;59.28;96842.36;105639;1276;23996;-73
2022/09/28 10:07:57;;;;;;;2.20;0.60;;;;;;;13.99;58.97;96841.05;105815;1276;24205;-73
2022/09/28 10:10:46;;;;;;;2.20;0.60;;;;;;;14.10;58.03;96837.24;106038;1277;137451;-73
2022/09/28 10:13:14;;;;;;;0.50;0.30;;;;;;;14.22;57.12;96837.52;105743;1277;22635;-74
2022/09/28 10:15:42;;;;;;;1.40;0.30;;;;;;;14.30;56.03;96836.87;105504;1278;137300;-72
2022/09/28 10:18:44;;;;;;;1.80;0.70;;;;;;;14.20;56.03;96837.39;105661;1275;22551;-72
2022/09/28 10:21:30;;;;;;;0.50;0.50;;;;;;;14.23;56.15;96831.75;105743;1277;137828;-72
2022/09/28 10:24:44;;;;;;;0.80;0.30;;;;;;;14.33;56.68;96826.71;105862;1277;23234;-72
2022/09/28 10:27:20;;;;;;;2.80;0.60;;;;;;;14.48;56.29;96830.02;106034;1274;137258;-73
2022/09/28 10:30:01;;;;;;;1.70;0.60;;;;;;;14.59;56.51;96828.96;105869;1274;22543;-73
2022/09/28 10:32:45;;;;;;;1.70;0.50;;;;;;;14.65;56.07;96828.63;106236;1274;137492;-73
2022/09/28 10:35:20;;;;;;;1.70;0.50;;;;;;;14.74;55.68;96825.38;106524;1274;23433;-73
2022/09/28 10:37:54;;;;;;;1.70;0.40;;;;;;;14.85;56.13;96825.25;106030;1274;25387;-73
2022/09/28 10:41:01;;;;;;;2.50;0.40;;;;;;;15.00;55.83;96825.91;105943;1277;22801;-74
2022/09/28 10:44:14;;;;;;;0.90;0.60;;;;;;;15.09;54.36;96823.16;105967;1277;25317;-73
2022/09/28 10:46:57;;;;;;;0.70;0.60;;;;;;;15.18;55.62;96821.08;105812;1277;22551;-73
2022/09/28 10:49:26;;;;;;;0.80;0.70;;;;;;;15.30;55.38;96820.47;105650;1276;23214;-73
2022/09/28 10:51:56;;;;;;;1.70;0.40;;;;;;;15.39;54.94;96815.87;105991;1274;137325;-73
2022/09/28 10:54:52;;;;;;;1.40;0.50;;;;;;;15.48;54.79;96812.45;106063;1274;25388;-73
2022/09/28 10:57:27;;;;;;;2.60;0.60;;;;;;;15.56;54.55;96803.98;105748;1276;137204;-73
2022/09/28 11:00:00;;;;;;;3.30;0.40;;;;;;;15.70;55.42;96802.34;105624;1274;26673;-72
2022/09/28 11:02:51;;;;;;;4.90;0.50;;;;;;;15.85;54.53;96789.85;105543;1275;137527;-73
2022/09/28 11:05:26;;;;;;;2.00;0.60;;;;;;;15.90;53.84;96786.34;105858;1274;24501;-72
2022/09/28 11:08:02;;;;;;;2.10;0.70;;;;;;;15.96;53.01;96786.38;105883;1274;22613;-72
2022/09/28 11:10:34;;;;;;;0.50;0.50;;;;;;;15.93;53.17;96785.66;106183;1275;25236;-73
2022/09/28 11:13:09;;;;;;;1.20;0.30;;;;;;;15.96;53.46;96779.30;106312;1274;22550;-73
2022/09/28 11:15:42;;;;;;;1.00;0.40;;;;;;;15.94;53.91;96776.52;105694;1274;194002;-73
2022/09/28 11:48:44;;;;;;;0.30;0.30;;;;;;;16.67;52.60;96749.66;102627;1318;565061;-73
2022/09/28 11:51:23;;;;;;;1.20;0.50;;;;;;;16.56;52.88;96735.52;104292;1291;364801;-72
2022/09/28 11:54:02;;;;;;;1.20;0.50;;;;;;;16.42;52.33;96733.70;104758;1290;137176;-72
2022/09/28 11:56:39;;;;;;;0.40;0.40;;;;;;;16.35;52.79;96741.17;104615;1290;22588;-72
2022/09/28 11:59:31;;;;;;;0.30;0.30;;;;;;;16.36;53.23;96738.95;104519;1290;30947;-72
2022/09/28 12:02:13;;;;;;;0.80;0.50;;;;;;;16.55;53.08;96735.78;104983;1290;22716;-72
2022/09/28 12:04:59;;;;;;;1.10;0.50;;;;;;;16.76;53.50;96734.80;104642;1290;22876;-71
2022/09/28 12:07:49;;;;;;;1.10;0.60;;;;;;;16.98;51.63;96739.66;104486;1290;137147;-72
2022/09/28 12:10:40;;;;;;;1.80;0.70;;;;;;;17.12;50.62;96737.33;104556;1290;24266;-72
2022/09/28 12:13:21;;;;;;;1.60;0.40;;;;;;;17.18;50.84;96713.84;104725;1290;136985;-71
2022/09/28 12:16:07;;;;;;;2.40;0.70;;;;;;;17.28;50.77;96711.25;105091;1290;22664;-71
2022/09/28 12:18:43;;;;;;;1.40;0.60;;;;;;;17.34;50.07;96713.92;104590;1291;137029;-70
2022/09/28 12:21:29;;;;;;;0.70;0.50;;;;;;;17.40;50.18;96709.67;104709;1290;26167;-70
2022/09/28 12:24:09;;;;;;;1.50;0.70;;;;;;;17.46;50.17;96709.92;104462;1290;137314;-72
2022/09/28 12:26:54;;;;;;;3.00;0.60;;;;;;;17.48;50.49;96706.55;104842;1290;22710;-70
2022/09/28 12:29:37;;;;;;;1.50;0.60;;;;;;;17.56;50.89;96706.77;105058;1290;24898;-70
2022/09/28 12:32:11;;;;;;;3.00;0.60;;;;;;;17.68;50.14;96701.46;104790;1290;22573;-70
2022/09/28 12:34:41;;;;;;;2.50;0.70;;;;;;;17.75;50.28;96690.44;104581;1290;25244;-70
2022/09/28 12:37:32;;;;;;;1.60;0.50;;;;;;;17.86;50.23;96690.95;104930;1290;137123;-71
2022/09/28 12:40:32;;;;;;;0.80;0.40;;;;;;;18.03;50.71;96690.30;104682;1290;30391;-70
2022/09/28 12:43:13;;;;;;;0.80;0.60;;;;;;;18.22;49.75;96686.12;104680;1290;137040;-70
2022/09/28 12:46:01;;;;;;;3.10;0.90;;;;;;;18.33;49.13;96681.31;104709;1291;25644;-69